sensor_id;sensor_type;location;lat;lon;timestamp;pressure;altitude;pressure_sealevel;temperature;humidity
31121;BME280;17770;45.966;13.632;2023-02-17T00:01:27;101825.16;;;15.33;60.96
31121;BME280;17770;45.966;13.632;2023-02-17T00:03:54;101821.66;;;15.34;60.74
31121;BME280;17770;45.966;13.632;2023-02-17T00:06:22;101816.50;;;15.32;60.89
31121;BME280;17770;45.966;13.632;2023-02-17T00:08:48;101820.88;;;15.32;60.99
31121;BME280;17770;45.966;13.632;2023-02-17T00:11:15;101814.75;;;15.33;61.07
31121;BME280;17770;45.966;13.632;2023-02-17T00:13:41;101813.06;;;15.32;60.69
31121;BME280;17770;45.966;13.632;2023-02-17T00:16:07;101800.91;;;15.32;60.81
31121;BME280;17770;45.966;13.632;2023-02-17T00:18:33;101807.00;;;15.31;60.84
31121;BME280;17770;45.966;13.632;2023-02-17T00:20:59;101812.16;;;15.33;60.77
31121;BME280;17770;45.966;13.632;2023-02-17T00:23:25;101806.16;;;15.31;60.67
31121;BME280;17770;45.966;13.632;2023-02-17T00:25:51;101813.84;;;15.34;60.87
31121;BME280;17770;45.966;13.632;2023-02-17T00:28:17;101818.22;;;15.33;61.00
31121;BME280;17770;45.966;13.632;2023-02-17T00:30:42;101814.84;;;15.30;60.90
31121;BME280;17770;45.966;13.632;2023-02-17T00:33:08;101818.28;;;15.32;60.75
31121;BME280;17770;45.966;13.632;2023-02-17T00:35:37;101813.94;;;15.31;60.91
31121;BME280;17770;45.966;13.632;2023-02-17T00:38:03;101820.88;;;15.30;60.81
31121;BME280;17770;45.966;13.632;2023-02-17T00:40:31;101821.75;;;15.31;60.92
31121;BME280;17770;45.966;13.632;2023-02-17T00:42:56;101819.09;;;15.32;61.22
31121;BME280;17770;45.966;13.632;2023-02-17T00:45:24;101815.66;;;15.32;60.75
31121;BME280;17770;45.966;13.632;2023-02-17T00:47:49;101819.09;;;15.32;60.80
31121;BME280;17770;45.966;13.632;2023-02-17T00:50:16;101813.94;;;15.31;60.84
31121;BME280;17770;45.966;13.632;2023-02-17T00:52:41;101817.44;;;15.30;61.19
31121;BME280;17770;45.966;13.632;2023-02-17T00:55:07;101811.34;;;15.31;61.02
31121;BME280;17770;45.966;13.632;2023-02-17T00:57:35;101809.66;;;15.30;61.03
31121;BME280;17770;45.966;13.632;2023-02-17T01:00:00;101813.06;;;15.32;60.91
31121;BME280;17770;45.966;13.632;2023-02-17T01:02:26;101795.69;;;15.32;60.63
31121;BME280;17770;45.966;13.632;2023-02-17T01:04:52;101807.88;;;15.32;61.11
31121;BME280;17770;45.966;13.632;2023-02-17T01:07:18;101803.53;;;15.31;61.05
31121;BME280;17770;45.966;13.632;2023-02-17T01:09:45;101812.22;;;15.31;61.05
31121;BME280;17770;45.966;13.632;2023-02-17T01:12:11;101818.28;;;15.32;61.05
31121;BME280;17770;45.966;13.632;2023-02-17T01:14:37;101818.28;;;15.30;61.14
31121;BME280;17770;45.966;13.632;2023-02-17T01:17:03;101814.81;;;15.31;60.44
31121;BME280;17770;45.966;13.632;2023-02-17T01:19:29;101809.59;;;15.31;61.02
31121;BME280;17770;45.966;13.632;2023-02-17T01:21:55;101815.69;;;15.30;60.57
31121;BME280;17770;45.966;13.632;2023-02-17T01:24:21;101815.69;;;15.30;60.65
31121;BME280;17770;45.966;13.632;2023-02-17T01:26:46;101813.97;;;15.29;60.85
31121;BME280;17770;45.966;13.632;2023-02-17T01:29:12;101811.38;;;15.29;60.95
31121;BME280;17770;45.966;13.632;2023-02-17T01:31:38;101806.16;;;15.31;60.52
31121;BME280;17770;45.966;13.632;2023-02-17T01:34:04;101806.16;;;15.31;60.80
31121;BME280;17770;45.966;13.632;2023-02-17T01:36:30;101807.94;;;15.29;60.92
31121;BME280;17770;45.966;13.632;2023-02-17T01:38:57;101813.06;;;15.30;60.84
31121;BME280;17770;45.966;13.632;2023-02-17T01:41:24;101813.97;;;15.29;61.26
31121;BME280;17770;45.966;13.632;2023-02-17T01:46:50;101814.84;;;15.30;60.58
31121;BME280;17770;45.966;13.632;2023-02-17T01:49:18;101810.56;;;15.27;61.02
31121;BME280;17770;45.966;13.632;2023-02-17T01:51:48;101807.94;;;15.29;61.17
31121;BME280;17770;45.966;13.632;2023-02-17T01:54:17;101812.25;;;15.30;60.66
31121;BME280;17770;45.966;13.632;2023-02-17T01:56:43;101812.28;;;15.28;60.52
31121;BME280;17770;45.966;13.632;2023-02-17T01:59:19;101805.31;;;15.29;61.02
31121;BME280;17770;45.966;13.632;2023-02-17T02:01:49;101800.09;;;15.30;60.78
31121;BME280;17770;45.966;13.632;2023-02-17T02:04:17;101801.91;;;15.28;60.87
31121;BME280;17770;45.966;13.632;2023-02-17T02:06:45;101794.09;;;15.28;60.87
31121;BME280;17770;45.966;13.632;2023-02-17T02:09:17;101789.78;;;15.27;61.02
31121;BME280;17770;45.966;13.632;2023-02-17T02:11:46;101792.38;;;15.27;60.76
31121;BME280;17770;45.966;13.632;2023-02-17T02:14:11;101792.31;;;15.29;60.91
31121;BME280;17770;45.966;13.632;2023-02-17T02:16:44;101793.22;;;15.28;60.80
31121;BME280;17770;45.966;13.632;2023-02-17T02:26:37;101791.50;;;15.28;60.91
31121;BME280;17770;45.966;13.632;2023-02-17T02:34:21;101792.31;;;15.29;60.68
31121;BME280;17770;45.966;13.632;2023-02-17T02:39:15;101790.63;;;15.28;60.79
31121;BME280;17770;45.966;13.632;2023-02-17T02:41:44;101788.94;;;15.27;60.79
31121;BME280;17770;45.966;13.632;2023-02-17T02:44:13;101785.44;;;15.28;60.81
31121;BME280;17770;45.966;13.632;2023-02-17T02:46:40;101794.09;;;15.28;60.49
31121;BME280;17770;45.966;13.632;2023-02-17T02:49:06;101798.38;;;15.29;60.68
31121;BME280;17770;45.966;13.632;2023-02-17T02:54:11;101801.91;;;15.28;60.85
31121;BME280;17770;45.966;13.632;2023-02-17T02:59:54;101801.03;;;15.28;60.77
31121;BME280;17770;45.966;13.632;2023-02-17T03:02:03;101800.16;;;15.27;60.53
31121;BME280;17770;45.966;13.632;2023-02-17T03:04:54;101802.78;;;15.27;60.65
31121;BME280;17770;45.966;13.632;2023-02-17T03:07:18;101812.34;;;15.27;60.82
31121;BME280;17770;45.966;13.632;2023-02-17T03:09:50;101807.94;;;15.29;60.59
31121;BME280;17770;45.966;13.632;2023-02-17T03:12:17;101803.72;;;15.25;60.88
31121;BME280;17770;45.966;13.632;2023-02-17T03:14:43;101802.81;;;15.26;61.09
31121;BME280;17770;45.966;13.632;2023-02-17T03:17:09;101802.84;;;15.24;61.02
31121;BME280;17770;45.966;13.632;2023-02-17T03:19:35;101802.78;;;15.27;61.11
31121;BME280;17770;45.966;13.632;2023-02-17T03:24:57;101794.13;;;15.27;61.11
31121;BME280;17770;45.966;13.632;2023-02-17T03:27:25;101795.91;;;15.25;60.61
31121;BME280;17770;45.966;13.632;2023-02-17T03:29:51;101795.91;;;15.25;60.79
31121;BME280;17770;45.966;13.632;2023-02-17T03:32:18;101798.47;;;15.26;60.86
31121;BME280;17770;45.966;13.632;2023-02-17T03:34:44;101815.75;;;15.27;61.04
31121;BME280;17770;45.966;13.632;2023-02-17T03:37:10;101804.53;;;15.27;60.96
31121;BME280;17770;45.966;13.632;2023-02-17T03:39:36;101801.13;;;15.25;60.80
31121;BME280;17770;45.966;13.632;2023-02-17T03:42:02;101795.00;;;15.26;60.82
31121;BME280;17770;45.966;13.632;2023-02-17T03:44:28;101790.63;;;15.28;61.16
31121;BME280;17770;45.966;13.632;2023-02-17T03:46:53;101791.59;;;15.25;61.00
31121;BME280;17770;45.966;13.632;2023-02-17T03:49:19;101786.34;;;15.27;60.43
31121;BME280;17770;45.966;13.632;2023-02-17T03:51:45;101783.78;;;15.25;61.14
31121;BME280;17770;45.966;13.632;2023-02-17T03:54:11;101776.81;;;15.26;61.10
31121;BME280;17770;45.966;13.632;2023-02-17T03:56:37;101777.78;;;15.23;60.76
31121;BME280;17770;45.966;13.632;2023-02-17T03:59:03;101782.03;;;15.26;60.21
31121;BME280;17770;45.966;13.632;2023-02-17T04:01:29;101783.78;;;15.24;60.66
31121;BME280;17770;45.966;13.632;2023-02-17T04:03:55;101774.31;;;15.23;60.81
31121;BME280;17770;45.966;13.632;2023-02-17T04:06:21;101776.00;;;15.25;60.93
31121;BME280;17770;45.966;13.632;2023-02-17T04:08:47;101782.09;;;15.23;60.83
31121;BME280;17770;45.966;13.632;2023-02-17T04:11:13;101785.53;;;15.25;60.84
31121;BME280;17770;45.966;13.632;2023-02-17T04:13:39;101791.59;;;15.25;60.96
31121;BME280;17770;45.966;13.632;2023-02-17T04:16:06;101802.81;;;15.26;60.58
31121;BME280;17770;45.966;13.632;2023-02-17T04:18:32;101802.84;;;15.24;60.57
31121;BME280;17770;45.966;13.632;2023-02-17T04:20:58;101813.25;;;15.24;60.79
31121;BME280;17770;45.966;13.632;2023-02-17T04:23:24;101821.09;;;15.23;61.00
31121;BME280;17770;45.966;13.632;2023-02-17T04:25:49;101818.50;;;15.23;60.71
31121;BME280;17770;45.966;13.632;2023-02-17T04:28:15;101824.53;;;15.23;60.47
31121;BME280;17770;45.966;13.632;2023-02-17T04:30:42;101831.44;;;15.24;61.10
31121;BME280;17770;45.966;13.632;2023-02-17T04:33:08;101835.81;;;15.22;60.97
31121;BME280;17770;45.966;13.632;2023-02-17T04:35:34;101834.94;;;15.23;60.79
31121;BME280;17770;45.966;13.632;2023-02-17T04:38:00;101845.28;;;15.25;60.56
31121;BME280;17770;45.966;13.632;2023-02-17T04:40:26;101837.59;;;15.22;60.67
31121;BME280;17770;45.966;13.632;2023-02-17T04:42:52;101832.38;;;15.22;61.08
31121;BME280;17770;45.966;13.632;2023-02-17T04:45:17;101822.00;;;15.22;60.80
31121;BME280;17770;45.966;13.632;2023-02-17T04:47:43;101822.81;;;15.22;60.75
31121;BME280;17770;45.966;13.632;2023-02-17T04:50:09;101822.81;;;15.22;60.42
31121;BME280;17770;45.966;13.632;2023-02-17T04:52:35;101821.09;;;15.23;60.59
31121;BME280;17770;45.966;13.632;2023-02-17T04:55:01;101820.19;;;15.24;60.65
31121;BME280;17770;45.966;13.632;2023-02-17T04:57:27;101812.38;;;15.24;60.81
31121;BME280;17770;45.966;13.632;2023-02-17T04:59:53;101809.81;;;15.22;60.41
31121;BME280;17770;45.966;13.632;2023-02-17T05:02:19;101815.84;;;15.24;60.58
31121;BME280;17770;45.966;13.632;2023-02-17T05:04:45;101814.97;;;15.24;60.61
31121;BME280;17770;45.966;13.632;2023-02-17T05:07:10;101823.69;;;15.23;60.56
31121;BME280;17770;45.966;13.632;2023-02-17T05:09:36;101820.22;;;15.22;60.80
31121;BME280;17770;45.966;13.632;2023-02-17T05:12:02;101827.22;;;15.20;60.67
31121;BME280;17770;45.966;13.632;2023-02-17T05:14:30;101827.19;;;15.22;60.63
31121;BME280;17770;45.966;13.632;2023-02-17T05:16:55;101833.25;;;15.21;60.59
31121;BME280;17770;45.966;13.632;2023-02-17T05:19:21;101826.38;;;15.20;60.60
31121;BME280;17770;45.966;13.632;2023-02-17T05:21:47;101833.28;;;15.19;60.63
31121;BME280;17770;45.966;13.632;2023-02-17T05:24:13;101826.31;;;15.21;60.42
31121;BME280;17770;45.966;13.632;2023-02-17T05:26:39;101827.19;;;15.22;60.61
31121;BME280;17770;45.966;13.632;2023-02-17T05:29:04;101831.56;;;15.20;60.69
31121;BME280;17770;45.966;13.632;2023-02-17T05:31:30;101825.47;;;15.21;60.76
31121;BME280;17770;45.966;13.632;2023-02-17T05:33:56;101824.63;;;15.20;61.06
31121;BME280;17770;45.966;13.632;2023-02-17T05:36:22;101828.06;;;15.21;60.81
31121;BME280;17770;45.966;13.632;2023-02-17T05:38:48;101829.84;;;15.19;60.63
31121;BME280;17770;45.966;13.632;2023-02-17T05:41:16;101835.94;;;15.18;60.80
31121;BME280;17770;45.966;13.632;2023-02-17T05:43:42;101829.81;;;15.20;61.00
31121;BME280;17770;45.966;13.632;2023-02-17T05:46:07;101833.28;;;15.19;60.63
31121;BME280;17770;45.966;13.632;2023-02-17T05:48:33;101831.56;;;15.20;61.10
31121;BME280;17770;45.966;13.632;2023-02-17T05:50:59;101842.81;;;15.19;60.81
31121;BME280;17770;45.966;13.632;2023-02-17T05:53:25;101844.56;;;15.20;60.82
31121;BME280;17770;45.966;13.632;2023-02-17T05:55:51;101851.53;;;15.18;60.46
31121;BME280;17770;45.966;13.632;2023-02-17T05:58:17;101852.34;;;15.20;60.76
31121;BME280;17770;45.966;13.632;2023-02-17T06:00:43;101849.78;;;15.18;60.71
31121;BME280;17770;45.966;13.632;2023-02-17T06:03:10;101848.94;;;15.18;60.54
31121;BME280;17770;45.966;13.632;2023-02-17T06:05:36;101846.34;;;15.18;60.92
31121;BME280;17770;45.966;13.632;2023-02-17T06:08:02;101847.19;;;15.18;60.68
31121;BME280;17770;45.966;13.632;2023-02-17T06:10:28;101852.34;;;15.20;60.97
31121;BME280;17770;45.966;13.632;2023-02-17T06:12:54;101851.53;;;15.18;61.35
31121;BME280;17770;45.966;13.632;2023-02-17T06:15:21;101846.34;;;15.18;60.55
31121;BME280;17770;45.966;13.632;2023-02-17T06:17:47;101854.13;;;15.18;60.86
31121;BME280;17770;45.966;13.632;2023-02-17T06:20:13;101858.47;;;15.17;60.73
31121;BME280;17770;45.966;13.632;2023-02-17T06:22:39;101852.44;;;15.17;60.98
31121;BME280;17770;45.966;13.632;2023-02-17T06:25:05;101856.72;;;15.18;60.49
31121;BME280;17770;45.966;13.632;2023-02-17T06:27:31;101859.31;;;15.18;60.91
31121;BME280;17770;45.966;13.632;2023-02-17T06:29:57;101864.56;;;15.16;60.66
31121;BME280;17770;45.966;13.632;2023-02-17T06:32:23;101864.47;;;15.19;60.95
31121;BME280;17770;45.966;13.632;2023-02-17T06:34:49;101874.00;;;15.19;60.93
31121;BME280;17770;45.966;13.632;2023-02-17T06:37:15;101873.19;;;15.18;60.60
31121;BME280;17770;45.966;13.632;2023-02-17T06:39:40;101875.78;;;15.18;60.95
31121;BME280;17770;45.966;13.632;2023-02-17T06:42:06;101874.97;;;15.16;60.55
31121;BME280;17770;45.966;13.632;2023-02-17T06:44:32;101877.50;;;15.18;60.67
31121;BME280;17770;45.966;13.632;2023-02-17T06:46:58;101879.25;;;15.17;61.11
31121;BME280;17770;45.966;13.632;2023-02-17T06:49:24;101883.63;;;15.17;60.69
31121;BME280;17770;45.966;13.632;2023-02-17T06:51:50;101876.69;;;15.16;60.98
31121;BME280;17770;45.966;13.632;2023-02-17T06:54:16;101879.25;;;15.17;60.57
31121;BME280;17770;45.966;13.632;2023-02-17T06:56:42;101879.28;;;15.16;61.04
31121;BME280;17770;45.966;13.632;2023-02-17T06:59:08;101879.31;;;15.14;60.96
31121;BME280;17770;45.966;13.632;2023-02-17T07:01:33;101886.22;;;15.17;60.95
31121;BME280;17770;45.966;13.632;2023-02-17T07:03:59;101893.09;;;15.18;61.12
31121;BME280;17770;45.966;13.632;2023-02-17T07:06:25;101888.81;;;15.17;60.77
31121;BME280;17770;45.966;13.632;2023-02-17T07:08:51;101893.09;;;15.18;61.17
31121;BME280;17770;45.966;13.632;2023-02-17T07:11:17;101896.56;;;15.18;60.76
31121;BME280;17770;45.966;13.632;2023-02-17T07:13:43;101898.31;;;15.18;60.37
31121;BME280;17770;45.966;13.632;2023-02-17T07:16:10;101903.50;;;15.18;60.48
31121;BME280;17770;45.966;13.632;2023-02-17T07:18:37;101909.59;;;15.17;60.56
31121;BME280;17770;45.966;13.632;2023-02-17T07:21:03;101917.41;;;15.17;60.79
31121;BME280;17770;45.966;13.632;2023-02-17T07:23:30;101915.63;;;15.17;61.05
31121;BME280;17770;45.966;13.632;2023-02-17T07:26:00;101917.41;;;15.17;61.10
31121;BME280;17770;45.966;13.632;2023-02-17T07:28:25;101914.84;;;15.15;60.78
31121;BME280;17770;45.966;13.632;2023-02-17T07:30:51;101912.19;;;15.17;60.68
31121;BME280;17770;45.966;13.632;2023-02-17T07:33:17;101907.88;;;15.16;60.76
31121;BME280;17770;45.966;13.632;2023-02-17T07:35:43;101907.84;;;15.17;60.74
31121;BME280;17770;45.966;13.632;2023-02-17T07:38:09;101915.63;;;15.17;60.73
31121;BME280;17770;45.966;13.632;2023-02-17T07:40:35;101907.00;;;15.17;60.63
31121;BME280;17770;45.966;13.632;2023-02-17T07:43:01;101916.53;;;15.16;61.24
31121;BME280;17770;45.966;13.632;2023-02-17T07:45:27;101921.69;;;15.18;60.73
31121;BME280;17770;45.966;13.632;2023-02-17T07:47:53;101924.28;;;15.18;60.16
31121;BME280;17770;45.966;13.632;2023-02-17T07:50:19;101926.03;;;15.17;60.81
31121;BME280;17770;45.966;13.632;2023-02-17T07:52:45;101929.50;;;15.18;60.83
31121;BME280;17770;45.966;13.632;2023-02-17T07:55:11;101935.59;;;15.17;60.98
31121;BME280;17770;45.966;13.632;2023-02-17T07:57:36;101932.09;;;15.18;61.20
31121;BME280;17770;45.966;13.632;2023-02-17T08:00:03;101933.81;;;15.17;60.79
31121;BME280;17770;45.966;13.632;2023-02-17T08:02:38;101936.38;;;15.19;60.99
31121;BME280;17770;45.966;13.632;2023-02-17T08:05:04;101935.56;;;15.18;60.79
31121;BME280;17770;45.966;13.632;2023-02-17T08:07:30;101933.00;;;15.17;60.85
31121;BME280;17770;45.966;13.632;2023-02-17T08:09:57;101925.19;;;15.17;61.12
31121;BME280;17770;45.966;13.632;2023-02-17T08:12:42;101933.03;;;15.15;61.14
31121;BME280;17770;45.966;13.632;2023-02-17T08:15:33;101926.03;;;15.17;60.75
31121;BME280;17770;45.966;13.632;2023-02-17T08:17:59;101927.78;;;15.17;60.92
31121;BME280;17770;45.966;13.632;2023-02-17T08:20:25;101931.19;;;15.19;60.73
31121;BME280;17770;45.966;13.632;2023-02-17T08:22:51;101932.13;;;15.16;61.29
31121;BME280;17770;45.966;13.632;2023-02-17T08:25:17;101929.50;;;15.18;60.71
31121;BME280;17770;45.966;13.632;2023-02-17T08:27:43;101933.81;;;15.17;61.15
31121;BME280;17770;45.966;13.632;2023-02-17T08:30:10;101938.97;;;15.19;60.82
31121;BME280;17770;45.966;13.632;2023-02-17T08:32:37;101943.34;;;15.18;60.68
31121;BME280;17770;45.966;13.632;2023-02-17T08:35:03;101941.63;;;15.17;61.27
31121;BME280;17770;45.966;13.632;2023-02-17T08:37:30;101931.19;;;15.19;60.76
31121;BME280;17770;45.966;13.632;2023-02-17T08:39:56;101929.44;;;15.19;60.85
31121;BME280;17770;45.966;13.632;2023-02-17T08:42:26;101932.06;;;15.19;60.86
31121;BME280;17770;45.966;13.632;2023-02-17T08:44:52;101932.09;;;15.18;61.04
31121;BME280;17770;45.966;13.632;2023-02-17T08:47:18;101928.56;;;15.20;60.83
31121;BME280;17770;45.966;13.632;2023-02-17T08:49:44;101926.00;;;15.19;60.74
31121;BME280;17770;45.966;13.632;2023-02-17T08:52:09;101928.56;;;15.20;60.79
31121;BME280;17770;45.966;13.632;2023-02-17T08:54:35;101929.41;;;15.21;60.83
31121;BME280;17770;45.966;13.632;2023-02-17T08:57:02;101932.06;;;15.19;60.76
31121;BME280;17770;45.966;13.632;2023-02-17T08:59:28;101932.91;;;15.20;61.16
31121;BME280;17770;45.966;13.632;2023-02-17T09:01:53;101934.66;;;15.19;60.88
31121;BME280;17770;45.966;13.632;2023-02-17T09:04:20;101936.34;;;15.22;60.43
31121;BME280;17770;45.966;13.632;2023-02-17T09:06:49;101937.16;;;15.22;60.85
31121;BME280;17770;45.966;13.632;2023-02-17T09:09:17;101937.16;;;15.22;60.57
31121;BME280;17770;45.966;13.632;2023-02-17T09:11:43;101942.38;;;15.22;61.17
31121;BME280;17770;45.966;13.632;2023-02-17T09:14:09;101939.78;;;15.22;60.66
31121;BME280;17770;45.966;13.632;2023-02-17T09:16:35;101934.59;;;15.21;61.25
31121;BME280;17770;45.966;13.632;2023-02-17T09:19:01;101934.59;;;15.21;60.82
31121;BME280;17770;45.966;13.632;2023-02-17T09:21:27;101926.78;;;15.22;61.10
31121;BME280;17770;45.966;13.632;2023-02-17T09:23:53;101923.34;;;15.22;60.88
31121;BME280;17770;45.966;13.632;2023-02-17T09:26:19;101918.09;;;15.23;61.11
31121;BME280;17770;45.966;13.632;2023-02-17T09:28:45;101919.84;;;15.23;60.92
31121;BME280;17770;45.966;13.632;2023-02-17T09:31:19;101929.34;;;15.24;60.91
31121;BME280;17770;45.966;13.632;2023-02-17T09:33:45;101927.63;;;15.23;61.33
31121;BME280;17770;45.966;13.632;2023-02-17T09:36:16;101928.53;;;15.22;60.89
31121;BME280;17770;45.966;13.632;2023-02-17T09:38:42;101945.78;;;15.24;61.20
31121;BME280;17770;45.966;13.632;2023-02-17T09:43:37;101938.84;;;15.25;60.67
31121;BME280;17770;45.966;13.632;2023-02-17T09:46:09;101940.63;;;15.23;60.72
31121;BME280;17770;45.966;13.632;2023-02-17T09:48:36;101944.09;;;15.23;61.18
31121;BME280;17770;45.966;13.632;2023-02-17T09:51:07;101938.84;;;15.25;61.13
31121;BME280;17770;45.966;13.632;2023-02-17T09:56:02;101938.00;;;15.24;61.08
31121;BME280;17770;45.966;13.632;2023-02-17T10:01:01;101951.84;;;15.25;60.75
31121;BME280;17770;45.966;13.632;2023-02-17T10:08:29;101947.53;;;15.25;60.86
31121;BME280;17770;45.966;13.632;2023-02-17T10:10:58;101944.94;;;15.24;60.86
31121;BME280;17770;45.966;13.632;2023-02-17T10:13:26;101943.16;;;15.26;60.90
31121;BME280;17770;45.966;13.632;2023-02-17T10:15:54;101945.75;;;15.26;60.90
31121;BME280;17770;45.966;13.632;2023-02-17T10:23:51;101956.97;;;15.28;60.98
31121;BME280;17770;45.966;13.632;2023-02-17T10:34:10;101972.53;;;15.29;60.96
31121;BME280;17770;45.966;13.632;2023-02-17T10:36:55;101963.00;;;15.30;61.20
31121;BME280;17770;45.966;13.632;2023-02-17T10:41:51;101960.41;;;15.30;61.15
31121;BME280;17770;45.966;13.632;2023-02-17T10:44:20;101955.19;;;15.30;61.24
31121;BME280;17770;45.966;13.632;2023-02-17T10:46:47;101947.44;;;15.28;60.95
31121;BME280;17770;45.966;13.632;2023-02-17T10:49:36;101950.00;;;15.30;61.15
31121;BME280;17770;45.966;13.632;2023-02-17T10:52:22;101949.13;;;15.29;60.96
31121;BME280;17770;45.966;13.632;2023-02-17T10:57:16;101944.81;;;15.30;61.29
31121;BME280;17770;45.966;13.632;2023-02-17T10:59:43;101941.31;;;15.31;60.83
31121;BME280;17770;45.966;13.632;2023-02-17T11:02:19;101945.63;;;15.30;61.16
31121;BME280;17770;45.966;13.632;2023-02-17T11:04:47;101946.47;;;15.32;61.46
31121;BME280;17770;45.966;13.632;2023-02-17T11:07:15;101942.16;;;15.31;60.93
31121;BME280;17770;45.966;13.632;2023-02-17T11:09:48;101934.38;;;15.31;61.19
31121;BME280;17770;45.966;13.632;2023-02-17T11:12:22;101935.19;;;15.33;60.83
31121;BME280;17770;45.966;13.632;2023-02-17T11:14:50;101929.16;;;15.31;61.43
31121;BME280;17770;45.966;13.632;2023-02-17T11:27:50;101917.00;;;15.33;60.95
31121;BME280;17770;45.966;13.632;2023-02-17T11:30:16;101918.78;;;15.31;61.15
31121;BME280;17770;45.966;13.632;2023-02-17T11:32:43;101912.69;;;15.32;61.04
31121;BME280;17770;45.966;13.632;2023-02-17T11:35:19;101910.03;;;15.34;61.29
31121;BME280;17770;45.966;13.632;2023-02-17T11:37:47;101903.13;;;15.33;61.50
31121;BME280;17770;45.966;13.632;2023-02-17T11:40:21;101897.91;;;15.34;61.26
31121;BME280;17770;45.966;13.632;2023-02-17T11:42:53;101896.22;;;15.33;60.96
31121;BME280;17770;45.966;13.632;2023-02-17T11:45:20;101895.34;;;15.33;61.54
31121;BME280;17770;45.966;13.632;2023-02-17T11:58:04;101874.47;;;15.36;60.88
31121;BME280;17770;45.966;13.632;2023-02-17T12:23:57;101856.22;;;15.37;61.01
31121;BME280;17770;45.966;13.632;2023-02-17T12:31:39;101847.56;;;15.40;60.87
31121;BME280;17770;45.966;13.632;2023-02-17T12:36:49;101855.34;;;15.38;61.01
31121;BME280;17770;45.966;13.632;2023-02-17T12:39:37;101845.81;;;15.39;61.32
31121;BME280;17770;45.966;13.632;2023-02-17T12:42:07;101843.22;;;15.39;61.63
31121;BME280;17770;45.966;13.632;2023-02-17T12:44:45;101848.38;;;15.42;61.19
31121;BME280;17770;45.966;13.632;2023-02-17T12:47:17;101840.56;;;15.42;61.34
31121;BME280;17770;45.966;13.632;2023-02-17T12:49:47;101841.41;;;15.42;61.49
31121;BME280;17770;45.966;13.632;2023-02-17T12:59:36;101835.38;;;15.42;61.21
31121;BME280;17770;45.966;13.632;2023-02-17T13:23:57;101821.63;;;15.69;61.34
31121;BME280;17770;45.966;13.632;2023-02-17T13:26:25;101824.31;;;15.66;61.13
31121;BME280;17770;45.966;13.632;2023-02-17T13:28:52;101821.81;;;15.63;61.30
31121;BME280;17770;45.966;13.632;2023-02-17T13:31:20;101827.00;;;15.63;61.42
31121;BME280;17770;45.966;13.632;2023-02-17T13:33:50;101823.53;;;15.62;61.25
31121;BME280;17770;45.966;13.632;2023-02-17T13:38:55;101822.72;;;15.60;61.42
31121;BME280;17770;45.966;13.632;2023-02-17T14:38:18;101814.69;;;16.00;60.68
31121;BME280;17770;45.966;13.632;2023-02-17T14:40:45;101834.69;;;15.98;60.81
31121;BME280;17770;45.966;13.632;2023-02-17T14:43:11;101834.81;;;15.94;60.60
31121;BME280;17770;45.966;13.632;2023-02-17T14:45:37;101819.34;;;15.89;60.55
31121;BME280;17770;45.966;13.632;2023-02-17T14:48:03;101813.41;;;15.84;60.84
31121;BME280;17770;45.966;13.632;2023-02-17T14:50:30;101819.56;;;15.82;61.10
31121;BME280;17770;45.966;13.632;2023-02-17T14:52:56;101809.16;;;15.80;60.70
31121;BME280;17770;45.966;13.632;2023-02-17T14:57:47;101824.88;;;15.77;60.90
31121;BME280;17770;45.966;13.632;2023-02-17T15:00:13;101817.84;;;15.81;61.28
31121;BME280;17770;45.966;13.632;2023-02-17T15:02:39;101813.50;;;15.81;61.47
31121;BME280;17770;45.966;13.632;2023-02-17T15:05:05;101821.25;;;15.83;61.30
31121;BME280;17770;45.966;13.632;2023-02-17T15:07:32;101811.78;;;15.80;60.96
31121;BME280;17770;45.966;13.632;2023-02-17T15:09:58;101804.06;;;15.77;61.04
31121;BME280;17770;45.966;13.632;2023-02-17T15:12:24;101808.38;;;15.78;60.99
31121;BME280;17770;45.966;13.632;2023-02-17T15:14:49;101817.09;;;15.76;61.50
31121;BME280;17770;45.966;13.632;2023-02-17T15:17:15;101823.19;;;15.76;60.99
31121;BME280;17770;45.966;13.632;2023-02-17T15:19:41;101814.56;;;15.74;61.32
31121;BME280;17770;45.966;13.632;2023-02-17T15:22:10;101802.50;;;15.72;61.00
31121;BME280;17770;45.966;13.632;2023-02-17T15:24:37;101809.34;;;15.74;61.56
31121;BME280;17770;45.966;13.632;2023-02-17T15:27:03;101820.66;;;15.73;61.29
31121;BME280;17770;45.966;13.632;2023-02-17T15:29:29;101817.19;;;15.73;60.96
31121;BME280;17770;45.966;13.632;2023-02-17T15:31:56;101821.53;;;15.72;61.50
31121;BME280;17770;45.966;13.632;2023-02-17T15:34:24;101823.25;;;15.73;61.59
31121;BME280;17770;45.966;13.632;2023-02-17T15:36:50;101818.94;;;15.72;61.50
31121;BME280;17770;45.966;13.632;2023-02-17T15:39:17;101822.50;;;15.70;61.52
31121;BME280;17770;45.966;13.632;2023-02-17T15:41:44;101825.09;;;15.70;61.49
31121;BME280;17770;45.966;13.632;2023-02-17T15:44:17;101831.13;;;15.70;61.53
31121;BME280;17770;45.966;13.632;2023-02-17T15:46:43;101825.03;;;15.71;60.92
31121;BME280;17770;45.966;13.632;2023-02-17T15:49:11;101816.44;;;15.69;61.49
31121;BME280;17770;45.966;13.632;2023-02-17T15:51:37;101818.13;;;15.70;61.47
31121;BME280;17770;45.966;13.632;2023-02-17T15:54:02;101815.53;;;15.70;61.53
31121;BME280;17770;45.966;13.632;2023-02-17T15:56:29;101819.03;;;15.69;61.45
31121;BME280;17770;45.966;13.632;2023-02-17T15:58:56;101815.59;;;15.67;61.03
31121;BME280;17770;45.966;13.632;2023-02-17T16:01:27;101819.94;;;15.68;61.13